Terminal Aerodrome Forecast
Issued by NWS

Home | Current Version | Previous Version | Text Only | Print | Product List | Glossary On
Versions: 1 2 3 4 5 6 7 8 9 10 11 12 13 14 15 16 17 18 19 20 21 22 23 24 25 26 27 28 29 30 31 32 33 34 35 36 37 38 39 40 41 42 43 44 45 46 47 48 49
000
FTUS45 KCYS 222005 AAB
TAFRWL
TAF AMD
KRWL 222005Z 2220/2318 32015KT P6SM VCSH SCT025 OVC090
      TEMPO 2220/2222 3SM -SHSN BKN012
     FM230000 31018G28KT 3SM -SN BKN015 OVC025=

USA.gov is the U.S. government's official web portal to all federal, state and local government web resources and services.